Time;durP1;ratioP1;P1;durP2;ratioP2;P2;SDS_P1;SDS_P2;PMS_P1;PMS_P2;Temp;Humidity;BMP_temperature;BMP_pressure;BME280_temperature;BME280_humidity;BME280_pressure;Samples;Min_cycle;Max_cycle;Signal;HPM_P1;HPM_P2
2022/05/18 00:01:11;;;;;;;3.30;1.40;;;;;;101404.52;;;;107739;1274;25451;-29
2022/05/18 00:03:41;;;;;;;3.90;1.40;;;;;;101403.73;;;;107746;1275;28098;-29
2022/05/18 00:06:10;;;;;;;3.40;1.30;;;;;;101402.95;;;;107764;1274;30309;-29
2022/05/18 00:08:36;;;;;;;3.30;1.50;;;;;;101403.19;;;;107755;1274;27982;-29
2022/05/18 00:11:14;;;;;;;3.70;1.40;;;;;;101407.70;;;;107722;1275;30565;-29
2022/05/18 00:13:43;;;;;;;4.20;1.20;;;;;;101408.80;;;;107732;1274;27997;-29
2022/05/18 00:16:11;;;;;;;4.20;1.50;;;;;;101417.64;;;;107757;1274;29384;-29
2022/05/18 00:18:38;;;;;;;3.70;1.20;;;;;;101418.02;;;;107761;1274;28073;-29
2022/05/18 00:21:05;;;;;;;3.30;1.30;;;;;;101417.39;;;;107726;1274;28144;-29
2022/05/18 00:23:33;;;;;;;3.20;1.10;;;;;;101419.22;;;;107777;1274;27207;-29
2022/05/18 00:26:00;;;;;;;4.60;1.30;;;;;;101425.66;;;;107766;1274;28191;-29
2022/05/18 00:28:27;;;;;;;3.20;1.50;;;;;;101424.71;;;;107774;1274;29315;-29
2022/05/18 00:30:53;;;;;;;2.90;1.10;;;;;;101425.30;;;;107743;1274;30091;-29
2022/05/18 00:33:20;;;;;;;3.50;1.40;;;;;;101422.12;;;;107748;1274;28060;-29
2022/05/18 00:35:47;;;;;;;3.40;1.40;;;;;;101428.16;;;;107751;1274;26005;-29
2022/05/18 00:38:14;;;;;;;4.00;1.50;;;;;;101430.06;;;;107766;1274;25993;-29
2022/05/18 00:40:45;;;;;;;3.70;1.30;;;;;;101432.40;;;;107703;1274;28860;-27
2022/05/18 00:43:34;;;;;;;3.90;1.40;;;;;;101442.61;;;;107771;1274;28031;-27
2022/05/18 00:46:05;;;;;;;4.90;1.40;;;;;;101445.46;;;;107785;1274;25989;-29
2022/05/18 00:48:32;;;;;;;3.40;1.20;;;;;;101451.66;;;;107722;1274;25884;-28
2022/05/18 00:51:04;;;;;;;3.30;1.20;;;;;;101455.15;;;;107695;1274;26865;-29
2022/05/18 00:53:49;;;;;;;3.50;1.20;;;;;;101459.00;;;;107779;1274;27693;-29
2022/05/18 00:56:23;;;;;;;3.30;1.50;;;;;;101462.33;;;;107705;1274;28098;-29
2022/05/18 00:59:00;;;;;;;4.20;1.30;;;;;;101466.04;;;;107784;1274;28051;-29
2022/05/18 01:01:27;;;;;;;3.50;1.40;;;;;;101466.80;;;;107777;1274;28092;-29
2022/05/18 01:03:55;;;;;;;2.90;1.30;;;;;;101472.40;;;;107711;1274;28160;-29
2022/05/18 01:06:44;;;;;;;3.00;1.20;;;;;;101475.36;;;;107777;1274;26496;-28
2022/05/18 01:09:23;;;;;;;3.80;1.30;;;;;;101477.56;;;;107757;1274;28186;-29
2022/05/18 01:11:50;;;;;;;4.10;1.20;;;;;;101482.23;;;;107701;1274;28110;-29
2022/05/18 01:14:29;;;;;;;3.10;1.20;;;;;;101486.73;;;;107709;1274;28091;-29
2022/05/18 01:16:55;;;;;;;3.60;1.20;;;;;;101482.45;;;;107770;1273;28053;-29
2022/05/18 01:19:44;;;;;;;2.50;1.00;;;;;;101481.14;;;;107765;1274;28763;-29
2022/05/18 01:22:54;;;;;;;3.30;1.10;;;;;;101484.04;;;;107791;1274;28341;-29
2022/05/18 01:25:33;;;;;;;3.60;1.20;;;;;;101486.60;;;;107781;1274;28376;-29
2022/05/18 01:28:01;;;;;;;3.40;1.40;;;;;;101491.10;;;;107796;1274;25753;-29
2022/05/18 01:30:30;;;;;;;2.60;1.20;;;;;;101493.20;;;;107772;1274;28407;-29
2022/05/18 01:33:00;;;;;;;3.80;1.30;;;;;;101494.14;;;;107784;1274;28476;-29
2022/05/18 01:35:30;;;;;;;2.60;1.30;;;;;;101495.54;;;;107790;1274;26474;-29
2022/05/18 01:37:57;;;;;;;3.70;1.20;;;;;;101499.35;;;;107824;1274;26905;-29
2022/05/18 01:41:10;;;;;;;3.00;1.20;;;;;;101499.54;;;;107790;1274;25986;-29
2022/05/18 01:43:49;;;;;;;4.20;2.10;;;;;;101501.98;;;;107813;1274;28386;-28
2022/05/18 01:46:18;;;;;;;2.60;1.10;;;;;;101504.04;;;;107801;1273;29301;-28
2022/05/18 01:48:49;;;;;;;3.60;1.40;;;;;;101503.90;;;;107803;1274;29656;-28
2022/05/18 01:51:43;;;;;;;3.90;1.20;;;;;;101501.85;;;;107789;1273;27607;-28
2022/05/18 01:54:11;;;;;;;2.90;1.20;;;;;;101502.16;;;;107774;1274;30596;-28
2022/05/18 01:56:38;;;;;;;3.10;1.20;;;;;;101499.62;;;;107836;1274;28418;-28
2022/05/18 01:59:05;;;;;;;2.70;1.10;;;;;;101500.25;;;;107822;1274;27895;-28
2022/05/18 02:01:32;;;;;;;2.80;1.20;;;;;;101506.14;;;;107806;1274;27777;-28
2022/05/18 02:03:59;;;;;;;2.90;1.20;;;;;;101508.39;;;;107776;1274;28689;-28
2022/05/18 02:06:26;;;;;;;4.10;1.50;;;;;;101509.95;;;;107777;1274;28280;-28
2022/05/18 02:08:52;;;;;;;3.40;1.20;;;;;;101508.66;;;;107760;1274;25728;-27
2022/05/18 02:11:20;;;;;;;3.60;1.10;;;;;;101510.45;;;;107789;1274;29301;-28
2022/05/18 02:13:48;;;;;;;2.70;1.10;;;;;;101507.87;;;;107777;1274;26364;-28
2022/05/18 02:16:14;;;;;;;3.20;1.40;;;;;;101510.20;;;;107797;1274;28182;-28
2022/05/18 02:18:41;;;;;;;3.10;1.10;;;;;;101513.42;;;;107775;1274;30165;-28
2022/05/18 02:21:10;;;;;;;2.90;1.20;;;;;;101515.05;;;;107777;1274;30397;-28
2022/05/18 02:23:38;;;;;;;2.90;1.50;;;;;;101520.71;;;;107831;1274;27284;-29
2022/05/18 02:26:16;;;;;;;2.40;1.10;;;;;;101520.48;;;;107843;1274;28390;-29
2022/05/18 02:28:44;;;;;;;3.70;1.10;;;;;;101518.38;;;;107812;1274;28357;-29
2022/05/18 02:31:11;;;;;;;2.70;1.00;;;;;;101522.16;;;;107810;1274;27568;-29
2022/05/18 02:33:39;;;;;;;3.00;1.20;;;;;;101522.44;;;;107856;1274;25791;-29
2022/05/18 02:36:07;;;;;;;2.30;0.90;;;;;;101526.19;;;;107774;1274;27810;-32
2022/05/18 02:38:35;;;;;;;2.90;1.10;;;;;;101530.05;;;;107795;1274;26105;-29
2022/05/18 02:41:02;;;;;;;3.70;1.30;;;;;;101530.56;;;;107804;1274;28428;-29
2022/05/18 02:43:30;;;;;;;3.40;1.10;;;;;;101534.33;;;;107795;1274;26062;-29
2022/05/18 02:46:06;;;;;;;2.90;1.10;;;;;;101539.80;;;;107832;1274;25747;-29
2022/05/18 02:48:33;;;;;;;2.70;1.00;;;;;;101547.98;;;;107803;1274;28523;-29
2022/05/18 02:50:59;;;;;;;3.10;1.10;;;;;;101549.55;;;;107778;1274;25943;-28
2022/05/18 02:53:26;;;;;;;3.20;1.20;;;;;;101551.69;;;;107775;1274;28344;-28
2022/05/18 02:56:08;;;;;;;2.90;1.10;;;;;;101555.05;;;;107779;1274;29533;-28
2022/05/18 02:58:46;;;;;;;3.00;1.30;;;;;;101559.23;;;;107777;1274;28300;-28
2022/05/18 03:01:18;;;;;;;3.20;1.00;;;;;;101572.19;;;;107803;1274;28398;-28
2022/05/18 03:03:45;;;;;;;2.80;1.20;;;;;;101579.05;;;;107765;1274;28457;-28
2022/05/18 03:06:16;;;;;;;2.80;1.20;;;;;;101579.03;;;;107767;1274;28568;-28
2022/05/18 03:08:44;;;;;;;3.20;1.10;;;;;;101581.02;;;;107811;1274;28283;-29
2022/05/18 03:11:12;;;;;;;3.30;1.20;;;;;;101581.09;;;;107829;1274;28155;-29
2022/05/18 03:13:39;;;;;;;3.60;1.30;;;;;;101584.70;;;;107796;1274;29223;-29
2022/05/18 03:16:07;;;;;;;2.70;1.10;;;;;;101588.89;;;;107779;1274;28252;-27
2022/05/18 03:18:34;;;;;;;3.20;1.30;;;;;;101596.11;;;;107801;1274;27587;-28
2022/05/18 03:23:46;;;;;;;3.30;1.20;;;;;;101605.20;;;;107782;1274;25707;-29
2022/05/18 03:26:18;;;;;;;2.90;1.00;;;;;;101612.95;;;;107776;1274;29814;-29
2022/05/18 03:28:47;;;;;;;3.40;1.30;;;;;;101617.08;;;;107815;1274;28440;-29
2022/05/18 03:31:16;;;;;;;2.80;1.20;;;;;;101616.16;;;;107801;1274;28323;-27
2022/05/18 03:33:44;;;;;;;3.10;1.20;;;;;;101616.00;;;;107839;1274;30615;-27
2022/05/18 03:36:13;;;;;;;3.60;1.20;;;;;;101618.59;;;;107812;1273;27124;-29
2022/05/18 03:38:41;;;;;;;2.70;1.20;;;;;;101623.15;;;;107777;1274;27543;-29
2022/05/18 03:41:08;;;;;;;3.20;1.40;;;;;;101624.04;;;;107808;1274;30138;-27
2022/05/18 03:43:36;;;;;;;3.00;1.20;;;;;;101629.65;;;;107768;1273;27855;-28
2022/05/18 03:46:04;;;;;;;3.50;1.30;;;;;;101634.02;;;;107796;1274;28371;-29
2022/05/18 03:48:32;;;;;;;3.30;1.20;;;;;;101640.39;;;;107833;1273;28250;-27
2022/05/18 03:51:01;;;;;;;3.20;1.30;;;;;;101645.34;;;;107800;1274;26910;-27
2022/05/18 03:53:28;;;;;;;3.60;1.30;;;;;;101648.47;;;;107796;1274;28332;-28
2022/05/18 03:55:55;;;;;;;3.40;1.30;;;;;;101648.08;;;;107798;1274;28367;-27
2022/05/18 03:58:22;;;;;;;3.50;1.60;;;;;;101652.05;;;;107785;1274;28316;-27
2022/05/18 04:00:52;;;;;;;4.00;1.50;;;;;;101653.89;;;;107816;1274;30276;-28
2022/05/18 04:03:23;;;;;;;3.50;1.50;;;;;;101658.78;;;;107796;1274;29063;-28
2022/05/18 04:05:51;;;;;;;4.00;1.50;;;;;;101666.30;;;;107783;1274;28486;-28
2022/05/18 04:08:19;;;;;;;3.10;1.40;;;;;;101671.62;;;;107798;1274;28127;-28
2022/05/18 04:10:46;;;;;;;3.80;1.40;;;;;;101675.45;;;;107796;1274;28370;-28
2022/05/18 04:13:16;;;;;;;4.50;1.80;;;;;;101675.95;;;;107826;1274;30681;-28
2022/05/18 04:15:43;;;;;;;4.20;1.50;;;;;;101676.27;;;;107778;1274;28466;-28
2022/05/18 04:18:10;;;;;;;2.90;1.10;;;;;;101678.05;;;;107740;1274;26139;-28
2022/05/18 04:20:41;;;;;;;3.80;1.50;;;;;;101677.25;;;;107798;1274;27137;-28
2022/05/18 04:23:08;;;;;;;3.90;1.70;;;;;;101676.68;;;;107760;1274;28457;-28
2022/05/18 04:25:36;;;;;;;3.30;1.30;;;;;;101677.23;;;;107849;1274;28530;-29
2022/05/18 04:28:05;;;;;;;3.50;1.20;;;;;;101681.86;;;;107813;1274;28913;-28
2022/05/18 04:30:32;;;;;;;3.70;1.60;;;;;;101678.78;;;;107829;1274;25782;-28
2022/05/18 04:32:59;;;;;;;3.10;1.30;;;;;;101682.02;;;;107791;1274;28222;-28
2022/05/18 04:35:28;;;;;;;4.90;1.90;;;;;;101682.59;;;;107839;1274;28310;-27
2022/05/18 04:37:56;;;;;;;4.30;1.40;;;;;;101682.45;;;;107792;1274;30506;-29
2022/05/18 04:40:23;;;;;;;3.70;1.40;;;;;;101683.19;;;;107838;1274;30157;-29
2022/05/18 04:42:51;;;;;;;3.90;1.70;;;;;;101682.79;;;;107805;1274;28319;-27
2022/05/18 04:45:21;;;;;;;4.40;1.70;;;;;;101683.21;;;;107817;1274;28249;-28
2022/05/18 04:47:49;;;;;;;3.60;1.40;;;;;;101681.81;;;;107806;1274;28676;-28
2022/05/18 04:50:16;;;;;;;3.80;1.20;;;;;;101681.91;;;;107832;1274;25983;-29
2022/05/18 04:52:43;;;;;;;4.00;1.50;;;;;;101685.23;;;;107811;1274;28587;-29
2022/05/18 04:55:11;;;;;;;5.20;1.60;;;;;;101684.80;;;;107825;1274;28376;-28
2022/05/18 04:57:38;;;;;;;4.80;1.50;;;;;;101686.29;;;;107805;1274;28381;-28
2022/05/18 05:00:09;;;;;;;3.80;1.40;;;;;;101684.90;;;;107795;1274;28242;-28
2022/05/18 05:02:36;;;;;;;4.40;1.40;;;;;;101682.97;;;;107794;1274;27065;-28
2022/05/18 05:05:10;;;;;;;4.10;1.50;;;;;;101683.79;;;;107781;1272;28315;-28
2022/05/18 05:07:36;;;;;;;4.00;1.40;;;;;;101684.76;;;;107802;1274;28483;-29
2022/05/18 05:10:04;;;;;;;3.30;1.40;;;;;;101681.40;;;;107812;1272;28338;-28
2022/05/18 05:12:31;;;;;;;4.90;1.70;;;;;;101685.63;;;;107707;1274;28327;-28
2022/05/18 05:14:57;;;;;;;7.00;1.60;;;;;;101685.39;;;;107694;1274;25803;-28
2022/05/18 05:17:25;;;;;;;4.80;1.60;;;;;;101685.85;;;;107679;1276;30746;-28
2022/05/18 05:19:52;;;;;;;5.20;1.80;;;;;;101689.40;;;;107630;1276;28419;-28
2022/05/18 05:22:19;;;;;;;6.00;1.70;;;;;;101692.75;;;;107703;1276;28345;-28
2022/05/18 05:24:45;;;;;;;4.20;1.50;;;;;;101694.00;;;;107665;1277;27640;-28
2022/05/18 05:27:12;;;;;;;4.70;1.80;;;;;;101697.31;;;;107526;1276;225947;-28
2022/05/18 05:29:38;;;;;;;6.10;1.70;;;;;;101696.81;;;;107653;1276;29318;-29
2022/05/18 05:32:09;;;;;;;5.40;1.60;;;;;;101700.52;;;;107688;1276;28226;-29
2022/05/18 05:34:36;;;;;;;4.60;1.80;;;;;;101703.19;;;;107686;1277;28428;-29
2022/05/18 05:37:03;;;;;;;5.20;1.50;;;;;;101705.34;;;;107676;1276;30116;-28
2022/05/18 05:39:30;;;;;;;4.10;1.40;;;;;;101705.45;;;;107710;1274;27661;-28
2022/05/18 05:41:58;;;;;;;5.40;1.80;;;;;;101713.25;;;;107641;1277;29014;-28
2022/05/18 05:44:25;;;;;;;4.00;1.50;;;;;;101716.62;;;;107698;1276;28353;-28
2022/05/18 05:46:52;;;;;;;4.70;1.70;;;;;;101719.94;;;;107658;1277;28380;-29
2022/05/18 05:49:18;;;;;;;4.90;1.80;;;;;;101723.71;;;;107694;1276;28366;-29
2022/05/18 05:51:45;;;;;;;3.60;1.50;;;;;;101728.29;;;;107728;1276;25810;-29
2022/05/18 05:54:12;;;;;;;4.50;1.90;;;;;;101729.75;;;;107725;1274;28309;-29
2022/05/18 05:56:39;;;;;;;4.60;1.40;;;;;;101732.20;;;;107697;1276;28436;-28
2022/05/18 05:59:05;;;;;;;3.70;1.60;;;;;;101734.48;;;;107657;1276;26173;-29
2022/05/18 06:01:33;;;;;;;4.10;1.40;;;;;;101741.77;;;;107729;1275;30097;-29
2022/05/18 06:04:00;;;;;;;6.20;1.50;;;;;;101743.33;;;;107640;1277;29633;-29
2022/05/18 06:06:27;;;;;;;4.00;1.60;;;;;;101742.92;;;;107710;1273;27833;-29
2022/05/18 06:08:53;;;;;;;3.50;1.30;;;;;;101746.88;;;;107624;1276;28404;-29
2022/05/18 06:11:20;;;;;;;6.00;1.70;;;;;;101753.06;;;;107745;1274;28351;-29
2022/05/18 06:13:47;;;;;;;5.30;1.80;;;;;;101758.09;;;;107761;1274;28335;-28
2022/05/18 06:16:13;;;;;;;4.80;1.80;;;;;;101756.01;;;;107790;1274;28399;-29
2022/05/18 06:18:40;;;;;;;4.80;1.50;;;;;;101761.05;;;;107800;1274;27911;-29
2022/05/18 06:21:07;;;;;;;5.20;2.00;;;;;;101761.52;;;;107809;1274;26776;-29
2022/05/18 06:23:33;;;;;;;5.10;1.80;;;;;;101765.42;;;;107783;1274;30625;-29
2022/05/18 06:26:02;;;;;;;4.20;1.90;;;;;;101766.16;;;;107777;1274;28415;-29
2022/05/18 06:28:29;;;;;;;4.60;1.90;;;;;;101773.34;;;;107835;1274;28387;-29
2022/05/18 06:30:55;;;;;;;5.20;1.80;;;;;;101774.70;;;;108008;1271;26904;-29
2022/05/18 06:33:22;;;;;;;5.10;1.90;;;;;;101771.01;;;;108021;1271;28377;-29
2022/05/18 06:35:51;;;;;;;4.30;1.70;;;;;;101776.40;;;;107975;1271;28355;-29
2022/05/18 06:38:19;;;;;;;6.10;1.90;;;;;;101777.79;;;;108002;1271;29536;-29
2022/05/18 06:43:31;;;;;;;4.60;1.60;;;;;;101783.38;;;;107988;1271;28582;-29
2022/05/18 06:46:00;;;;;;;5.40;1.50;;;;;;101781.05;;;;108000;1271;27343;-29
2022/05/18 06:48:28;;;;;;;4.10;1.50;;;;;;101776.81;;;;107980;1271;26020;-29
2022/05/18 06:50:55;;;;;;;7.00;2.10;;;;;;101779.94;;;;108015;1271;30433;-29
2022/05/18 06:53:21;;;;;;;4.50;1.90;;;;;;101781.38;;;;107964;1271;27709;-29
2022/05/18 06:55:49;;;;;;;5.10;1.90;;;;;;101785.13;;;;107992;1271;28429;-29
2022/05/18 06:58:18;;;;;;;4.10;1.50;;;;;;101783.05;;;;107971;1271;28497;-29
2022/05/18 07:00:44;;;;;;;6.60;1.70;;;;;;101789.95;;;;108013;1271;27311;-29
2022/05/18 07:03:11;;;;;;;5.50;1.70;;;;;;101789.04;;;;108041;1271;27880;-29
2022/05/18 07:05:38;;;;;;;4.70;1.50;;;;;;101791.98;;;;108009;1271;25797;-29
2022/05/18 07:08:06;;;;;;;4.20;1.50;;;;;;101800.60;;;;108006;1269;26990;-29
2022/05/18 07:10:33;;;;;;;4.40;1.40;;;;;;101801.52;;;;107993;1271;30591;-28
2022/05/18 07:13:00;;;;;;;4.70;1.60;;;;;;101804.35;;;;108000;1271;28344;-28
2022/05/18 07:15:26;;;;;;;4.90;1.60;;;;;;101808.14;;;;107984;1271;27181;-28
2022/05/18 07:17:53;;;;;;;4.90;1.50;;;;;;101812.17;;;;107984;1271;25996;-28
2022/05/18 07:20:19;;;;;;;3.50;1.30;;;;;;101813.48;;;;107992;1271;28186;-28
2022/05/18 07:22:46;;;;;;;3.70;1.30;;;;;;101808.27;;;;107926;1271;29149;-28
2022/05/18 07:25:13;;;;;;;5.60;1.50;;;;;;101807.10;;;;107974;1271;28107;-28
2022/05/18 07:27:41;;;;;;;4.30;1.40;;;;;;101803.45;;;;107977;1271;28412;-28
2022/05/18 07:30:09;;;;;;;4.00;1.40;;;;;;101806.64;;;;107959;1271;26797;-29
2022/05/18 07:32:37;;;;;;;2.90;1.20;;;;;;101810.27;;;;108009;1271;27988;-27
2022/05/18 07:35:04;;;;;;;5.20;1.40;;;;;;101804.17;;;;107996;1271;28431;-28
2022/05/18 07:37:31;;;;;;;5.20;1.50;;;;;;101806.92;;;;108037;1271;28299;-28
2022/05/18 07:39:58;;;;;;;4.00;1.10;;;;;;101800.05;;;;108007;1271;28422;-28
2022/05/18 07:42:24;;;;;;;4.00;1.10;;;;;;101797.54;;;;107989;1270;26073;-28
2022/05/18 07:44:51;;;;;;;3.80;1.10;;;;;;101795.08;;;;108011;1271;27777;-28
2022/05/18 07:47:20;;;;;;;3.50;1.20;;;;;;101794.85;;;;108011;1271;26079;-28
2022/05/18 07:49:46;;;;;;;3.70;1.20;;;;;;101793.19;;;;108010;1271;30453;-28
2022/05/18 07:52:13;;;;;;;3.10;1.20;;;;;;101795.52;;;;107996;1271;28364;-28
2022/05/18 07:54:40;;;;;;;4.10;1.20;;;;;;101796.70;;;;107988;1271;28080;-28
2022/05/18 07:57:08;;;;;;;3.90;1.40;;;;;;101791.02;;;;108008;1271;28521;-28
2022/05/18 07:59:36;;;;;;;4.50;1.20;;;;;;101793.01;;;;108018;1271;26512;-28
2022/05/18 08:02:04;;;;;;;5.40;1.20;;;;;;101791.30;;;;107974;1271;26027;-28
2022/05/18 08:04:30;;;;;;;5.00;1.30;;;;;;101796.14;;;;107966;1271;25945;-27
2022/05/18 08:06:57;;;;;;;3.50;1.20;;;;;;101790.82;;;;107974;1271;28351;-28
2022/05/18 08:09:24;;;;;;;3.60;1.10;;;;;;101787.33;;;;107994;1271;28517;-28
2022/05/18 08:17:25;;;;;;;6.40;1.30;;;;;;101788.24;;;;107991;1270;28344;-28
2022/05/18 08:19:52;;;;;;;3.60;1.10;;;;;;101790.06;;;;108027;1271;26046;-28
2022/05/18 08:22:18;;;;;;;2.60;1.00;;;;;;101789.91;;;;107958;1271;28460;-28
2022/05/18 08:24:45;;;;;;;4.20;1.10;;;;;;101788.80;;;;108005;1270;28348;-28
2022/05/18 08:27:15;;;;;;;4.40;1.10;;;;;;101785.52;;;;107970;1271;28405;-28
2022/05/18 08:29:42;;;;;;;3.00;1.00;;;;;;101781.29;;;;108047;1271;29529;-29
2022/05/18 08:32:09;;;;;;;4.50;1.20;;;;;;101780.94;;;;108030;1271;30818;-30
2022/05/18 08:34:36;;;;;;;4.10;1.00;;;;;;101780.61;;;;107797;1271;27855;-28
2022/05/18 08:37:03;;;;;;;5.10;1.20;;;;;;101778.28;;;;107859;1271;28403;-28
2022/05/18 08:39:30;;;;;;;3.70;1.10;;;;;;101777.91;;;;107958;1271;29197;-29
2022/05/18 08:41:58;;;;;;;3.90;1.00;;;;;;101773.23;;;;107840;1271;29127;-29
2022/05/18 08:44:36;;;;;;;3.20;1.20;;;;;;101773.82;;;;107962;1271;30205;-29
2022/05/18 08:47:40;;;;;;;3.80;1.10;;;;;;101775.06;;;;107912;1271;27180;-29
2022/05/18 08:50:15;;;;;;;3.20;1.00;;;;;;101780.41;;;;107896;1271;28428;-28
2022/05/18 08:53:12;;;;;;;4.10;1.10;;;;;;101782.11;;;;107928;1270;28328;-27
2022/05/18 08:56:26;;;;;;;2.30;0.90;;;;;;101779.77;;;;107892;1271;25971;-28
2022/05/18 08:58:53;;;;;;;4.50;1.10;;;;;;101776.88;;;;107527;1276;28356;-28
2022/05/18 09:01:35;;;;;;;3.20;0.90;;;;;;101774.54;;;;107801;1271;28407;-28
2022/05/18 09:04:11;;;;;;;3.70;0.90;;;;;;101770.55;;;;107931;1271;29462;-29
2022/05/18 09:06:47;;;;;;;3.20;1.10;;;;;;101771.30;;;;107808;1271;26143;-29
2022/05/18 09:12:31;;;;;;;3.70;0.90;;;;;;101769.16;;;;107789;1271;29570;-28
2022/05/18 09:14:59;;;;;;;4.40;1.00;;;;;;101768.16;;;;107928;1271;30773;-27
2022/05/18 09:17:51;;;;;;;2.50;0.90;;;;;;101768.08;;;;107910;1271;25792;-27
2022/05/18 09:20:52;;;;;;;2.30;0.70;;;;;;101770.05;;;;107897;1271;26147;-29
2022/05/18 09:23:44;;;;;;;3.40;1.00;;;;;;101766.68;;;;107842;1271;25922;-29
2022/05/18 09:26:23;;;;;;;2.50;1.00;;;;;;101761.77;;;;107868;1271;25958;-29
2022/05/18 09:29:13;;;;;;;3.90;1.00;;;;;;101762.85;;;;107921;1271;29873;-28
2022/05/18 09:32:18;;;;;;;2.50;0.80;;;;;;101761.29;;;;107902;1271;29227;-28
2022/05/18 09:35:26;;;;;;;4.20;0.80;;;;;;101760.23;;;;107860;1271;28227;-28
2022/05/18 09:38:05;;;;;;;2.50;0.80;;;;;;101760.46;;;;107738;1272;28210;-28
2022/05/18 09:40:44;;;;;;;2.50;0.70;;;;;;101761.10;;;;109246;1271;25696;-28
2022/05/18 09:44:00;;;;;;;1.80;0.90;;;;;;101758.28;;;;107690;1271;28307;-30
2022/05/18 09:46:29;;;;;;;1.90;0.50;;;;;;101759.77;;;;107810;1271;28373;-30
2022/05/18 09:49:03;;;;;;;1.90;0.70;;;;;;101758.05;;;;107961;1269;26008;-30
2022/05/18 09:51:31;;;;;;;2.10;0.70;;;;;;101758.00;;;;107837;1271;28408;-30
2022/05/18 09:53:58;;;;;;;3.20;0.90;;;;;;101759.67;;;;107813;1273;25811;-30
2022/05/18 09:56:31;;;;;;;2.40;0.80;;;;;;101755.05;;;;107955;1271;30694;-32
2022/05/18 09:59:02;;;;;;;2.70;1.20;;;;;;101748.83;;;;107967;1271;29769;-31
2022/05/18 10:07:32;;;;;;;3.20;0.80;;;;;;101746.36;;;;107858;1271;27312;-28
2022/05/18 10:10:38;;;;;;;1.80;0.70;;;;;;101751.52;;;;107770;1271;29527;-29
2022/05/18 10:13:17;;;;;;;3.00;0.70;;;;;;101748.15;;;;107638;1277;28476;-29
2022/05/18 10:15:47;;;;;;;2.20;0.90;;;;;;101746.59;;;;107861;1271;25873;-28
2022/05/18 10:18:41;;;;;;;2.30;0.70;;;;;;101743.13;;;;107887;1271;29696;-29
2022/05/18 10:21:16;;;;;;;2.90;0.70;;;;;;101748.66;;;;107814;1271;29699;-29
2022/05/18 10:23:52;;;;;;;3.90;0.80;;;;;;101748.09;;;;107906;1271;28210;-28
2022/05/18 10:26:41;;;;;;;2.80;0.70;;;;;;101747.23;;;;107815;1271;30689;-28
2022/05/18 10:29:23;;;;;;;2.00;0.70;;;;;;101740.89;;;;107815;1271;25985;-28
2022/05/18 10:32:11;;;;;;;2.70;0.70;;;;;;101739.27;;;;107958;1271;25981;-29
2022/05/18 10:34:50;;;;;;;1.50;0.60;;;;;;101732.70;;;;107873;1271;28347;-28
2022/05/18 10:37:34;;;;;;;2.60;0.80;;;;;;101733.31;;;;107820;1271;30781;-28
2022/05/18 10:40:19;;;;;;;1.30;0.60;;;;;;101724.75;;;;107751;1271;28542;-27
2022/05/18 10:42:55;;;;;;;1.70;0.50;;;;;;101718.89;;;;107842;1271;28318;-28
2022/05/18 10:45:25;;;;;;;3.20;0.70;;;;;;101715.52;;;;107922;1271;32647;-29
2022/05/18 10:47:54;;;;;;;2.30;0.70;;;;;;101715.19;;;;107959;1271;28345;-28
2022/05/18 10:50:36;;;;;;;2.10;0.70;;;;;;101715.95;;;;107847;1271;28445;-28
2022/05/18 10:53:17;;;;;;;2.00;0.70;;;;;;101719.89;;;;107836;1271;25838;-28
2022/05/18 10:55:56;;;;;;;2.00;0.70;;;;;;101716.96;;;;107787;1271;28352;-28
2022/05/18 10:58:26;;;;;;;1.20;0.60;;;;;;101713.02;;;;107899;1271;29004;-28
2022/05/18 11:01:29;;;;;;;2.20;0.70;;;;;;101711.79;;;;107894;1271;25765;-28
2022/05/18 11:04:07;;;;;;;2.30;0.80;;;;;;101709.86;;;;107830;1271;27945;-28
2022/05/18 11:06:38;;;;;;;2.00;0.60;;;;;;101704.02;;;;107845;1271;27930;-29
2022/05/18 11:09:15;;;;;;;2.80;0.50;;;;;;101699.59;;;;107894;1271;28390;-29
2022/05/18 11:12:03;;;;;;;2.60;0.70;;;;;;101695.40;;;;107656;1273;30743;-29
2022/05/18 11:14:58;;;;;;;2.10;0.70;;;;;;101692.42;;;;107678;1272;25807;-29
2022/05/18 11:17:34;;;;;;;5.00;1.00;;;;;;101689.94;;;;107682;1271;27186;-30
2022/05/18 11:20:41;;;;;;;5.40;0.90;;;;;;101691.48;;;;107745;1271;30639;-30
2022/05/18 11:23:48;;;;;;;4.40;0.80;;;;;;101689.80;;;;107821;1271;27610;-30
2022/05/18 11:27:13;;;;;;;3.50;0.60;;;;;;101693.46;;;;107956;1271;28536;-30
2022/05/18 11:30:08;;;;;;;2.10;0.60;;;;;;101690.36;;;;107820;1271;28324;-30
2022/05/18 11:32:57;;;;;;;1.90;0.80;;;;;;101687.74;;;;107835;1271;28223;-30
2022/05/18 11:36:04;;;;;;;1.60;0.60;;;;;;101688.02;;;;107798;1271;27800;-30
2022/05/18 11:38:49;;;;;;;3.00;0.80;;;;;;101690.42;;;;107745;1273;27975;-29
2022/05/18 11:41:38;;;;;;;2.10;0.60;;;;;;101689.31;;;;107909;1271;26453;-29
2022/05/18 11:44:39;;;;;;;1.50;0.50;;;;;;101684.63;;;;107902;1271;27721;-29
2022/05/18 11:47:14;;;;;;;4.40;0.70;;;;;;101683.33;;;;107837;1271;27068;-29
2022/05/18 11:50:02;;;;;;;3.30;0.70;;;;;;101676.11;;;;107908;1271;28223;-29
2022/05/18 11:53:16;;;;;;;3.00;0.70;;;;;;101672.10;;;;107802;1272;26711;-29
2022/05/18 11:56:20;;;;;;;2.20;0.50;;;;;;101668.30;;;;107763;1271;27307;-30
2022/05/18 12:02:01;;;;;;;2.30;0.60;;;;;;101668.95;;;;107848;1271;30517;-29
2022/05/18 12:04:48;;;;;;;2.90;0.70;;;;;;101673.29;;;;107853;1271;30665;-29
2022/05/18 12:08:25;;;;;;;2.40;0.80;;;;;;101679.55;;;;107899;1271;27908;-30
2022/05/18 12:11:25;;;;;;;3.00;0.60;;;;;;101671.83;;;;107754;1271;25967;-30
2022/05/18 12:14:20;;;;;;;2.00;0.60;;;;;;101668.70;;;;107874;1271;27828;-30
2022/05/18 12:16:52;;;;;;;2.40;0.70;;;;;;101670.07;;;;107870;1271;30837;-30
2022/05/18 12:19:52;;;;;;;1.50;0.60;;;;;;101669.86;;;;107765;1271;30556;-29
2022/05/18 12:22:27;;;;;;;1.50;0.60;;;;;;101671.70;;;;107822;1271;28521;-30
2022/05/18 12:24:54;;;;;;;2.50;0.70;;;;;;101674.12;;;;107865;1271;28379;-30
2022/05/18 12:27:24;;;;;;;2.20;0.60;;;;;;101674.44;;;;107808;1272;28054;-29
2022/05/18 12:29:56;;;;;;;1.80;0.50;;;;;;101675.83;;;;107795;1270;29188;-31
2022/05/18 12:32:23;;;;;;;1.40;0.50;;;;;;101673.48;;;;107893;1271;28294;-31
2022/05/18 12:35:51;;;;;;;3.70;0.70;;;;;;101670.74;;;;107835;1271;28213;-28
2022/05/18 12:38:59;;;;;;;2.80;0.80;;;;;;101672.25;;;;107557;1277;30523;-29
2022/05/18 12:41:30;;;;;;;2.50;0.60;;;;;;101667.60;;;;107840;1271;26316;-29
2022/05/18 12:44:21;;;;;;;2.70;0.70;;;;;;101663.98;;;;107939;1271;27217;-29
2022/05/18 12:46:57;;;;;;;2.10;0.60;;;;;;101652.92;;;;107930;1271;29203;-29
2022/05/18 12:49:38;;;;;;;2.00;0.60;;;;;;101653.09;;;;107814;1271;30113;-30
2022/05/18 12:52:30;;;;;;;2.30;0.80;;;;;;101652.79;;;;107867;1271;30313;-30
2022/05/18 12:55:25;;;;;;;2.60;0.60;;;;;;101655.38;;;;107824;1271;28269;-30
2022/05/18 12:58:11;;;;;;;2.60;0.70;;;;;;101653.36;;;;107720;1271;28676;-31
2022/05/18 13:00:56;;;;;;;2.20;0.60;;;;;;101653.70;;;;107837;1271;28394;-31
2022/05/18 13:03:43;;;;;;;2.40;0.60;;;;;;101657.27;;;;107995;1271;28214;-30
2022/05/18 13:06:17;;;;;;;1.50;0.50;;;;;;101649.59;;;;107887;1271;28461;-30
2022/05/18 13:09:03;;;;;;;3.20;0.70;;;;;;101642.63;;;;107792;1271;28412;-30
2022/05/18 13:11:42;;;;;;;2.90;0.70;;;;;;101631.13;;;;107825;1273;28421;-31
2022/05/18 13:15:00;;;;;;;3.80;0.70;;;;;;101631.57;;;;107790;1271;30266;-31
2022/05/18 13:17:55;;;;;;;1.50;0.60;;;;;;101631.98;;;;107849;1271;25956;-30
2022/05/18 13:20:25;;;;;;;2.30;0.60;;;;;;101626.16;;;;107854;1272;27805;-27
2022/05/18 13:23:33;;;;;;;1.60;0.50;;;;;;101620.73;;;;107847;1271;26177;-27
2022/05/18 13:26:24;;;;;;;1.20;0.50;;;;;;101616.98;;;;107459;1273;329059;-26
2022/05/18 13:28:54;;;;;;;1.70;0.90;;;;;;101613.46;;;;107881;1271;30467;-27
2022/05/18 13:31:20;;;;;;;1.90;0.70;;;;;;101614.24;;;;107860;1271;26208;-27
2022/05/18 13:34:23;;;;;;;2.20;0.80;;;;;;101613.71;;;;107767;1274;30709;-27
2022/05/18 13:36:58;;;;;;;2.50;0.60;;;;;;101608.20;;;;107915;1271;30580;-27
2022/05/18 13:39:26;;;;;;;1.90;0.60;;;;;;101617.62;;;;107849;1271;29200;-27
2022/05/18 13:41:53;;;;;;;2.20;0.70;;;;;;101618.55;;;;107875;1271;28523;-27
2022/05/18 13:44:26;;;;;;;2.10;0.40;;;;;;101616.29;;;;107861;1271;26143;-27
2022/05/18 13:46:55;;;;;;;2.30;0.60;;;;;;101616.23;;;;107848;1271;28374;-27
2022/05/18 13:49:25;;;;;;;2.20;0.70;;;;;;101611.67;;;;107800;1274;30531;-27